sensor_id;sensor_type;location;lat;lon;timestamp;temperature;humidity
44851;DHT22;30583;48.714;9.386;2022-10-16T00:01:13;16.20;87.30
44851;DHT22;30583;48.714;9.386;2022-10-16T00:03:40;16.20;87.20
44851;DHT22;30583;48.714;9.386;2022-10-16T00:06:06;16.20;87.30
44851;DHT22;30583;48.714;9.386;2022-10-16T00:08:33;16.20;87.30
44851;DHT22;30583;48.714;9.386;2022-10-16T00:11:07;16.20;87.50
44851;DHT22;30583;48.714;9.386;2022-10-16T00:13:34;16.10;87.50
44851;DHT22;30583;48.714;9.386;2022-10-16T00:16:01;16.10;87.60
44851;DHT22;30583;48.714;9.386;2022-10-16T00:18:27;16.10;87.60
44851;DHT22;30583;48.714;9.386;2022-10-16T00:20:53;16.20;87.30
44851;DHT22;30583;48.714;9.386;2022-10-16T00:23:19;16.10;87.40
44851;DHT22;30583;48.714;9.386;2022-10-16T00:25:54;16.00;87.50
44851;DHT22;30583;48.714;9.386;2022-10-16T00:28:20;16.00;87.70
44851;DHT22;30583;48.714;9.386;2022-10-16T00:30:46;15.90;87.90
44851;DHT22;30583;48.714;9.386;2022-10-16T00:33:11;15.90;87.90
44851;DHT22;30583;48.714;9.386;2022-10-16T00:35:37;16.00;87.70
44851;DHT22;30583;48.714;9.386;2022-10-16T00:38:02;16.00;87.80
44851;DHT22;30583;48.714;9.386;2022-10-16T00:40:28;16.00;87.60
44851;DHT22;30583;48.714;9.386;2022-10-16T00:42:53;15.90;87.80
44851;DHT22;30583;48.714;9.386;2022-10-16T00:45:19;15.90;87.90
44851;DHT22;30583;48.714;9.386;2022-10-16T00:47:46;15.80;88.10
44851;DHT22;30583;48.714;9.386;2022-10-16T00:50:32;15.80;88.10
44851;DHT22;30583;48.714;9.386;2022-10-16T00:52:59;15.80;87.80
44851;DHT22;30583;48.714;9.386;2022-10-16T00:55:26;15.90;88.00
44851;DHT22;30583;48.714;9.386;2022-10-16T00:57:53;15.90;87.70
44851;DHT22;30583;48.714;9.386;2022-10-16T01:00:22;15.90;87.70
44851;DHT22;30583;48.714;9.386;2022-10-16T01:02:58;15.90;87.50
44851;DHT22;30583;48.714;9.386;2022-10-16T01:05:33;15.80;87.70
44851;DHT22;30583;48.714;9.386;2022-10-16T01:08:22;15.90;87.60
44851;DHT22;30583;48.714;9.386;2022-10-16T01:10:57;15.80;87.60
44851;DHT22;30583;48.714;9.386;2022-10-16T01:13:30;15.70;87.70
44851;DHT22;30583;48.714;9.386;2022-10-16T01:16:34;15.70;87.90
44851;DHT22;30583;48.714;9.386;2022-10-16T01:19:08;15.70;87.70
44851;DHT22;30583;48.714;9.386;2022-10-16T01:21:40;15.80;87.60
44851;DHT22;30583;48.714;9.386;2022-10-16T01:24:26;15.90;87.40
44851;DHT22;30583;48.714;9.386;2022-10-16T01:30:10;15.70;87.60
44851;DHT22;30583;48.714;9.386;2022-10-16T01:32:49;15.60;87.90
44851;DHT22;30583;48.714;9.386;2022-10-16T01:35:24;15.70;87.60
44851;DHT22;30583;48.714;9.386;2022-10-16T01:37:51;15.70;87.70
44851;DHT22;30583;48.714;9.386;2022-10-16T01:40:20;15.70;87.70
44851;DHT22;30583;48.714;9.386;2022-10-16T01:42:59;15.70;87.70
44851;DHT22;30583;48.714;9.386;2022-10-16T01:45:25;15.70;87.70
44851;DHT22;30583;48.714;9.386;2022-10-16T01:47:53;15.60;87.90
44851;DHT22;30583;48.714;9.386;2022-10-16T01:50:20;15.60;87.80
44851;DHT22;30583;48.714;9.386;2022-10-16T01:52:49;15.60;87.80
44851;DHT22;30583;48.714;9.386;2022-10-16T01:55:22;15.50;87.70
44851;DHT22;30583;48.714;9.386;2022-10-16T01:57:51;15.60;87.60
44851;DHT22;30583;48.714;9.386;2022-10-16T02:00:19;15.60;87.60
44851;DHT22;30583;48.714;9.386;2022-10-16T02:02:49;15.50;88.00
44851;DHT22;30583;48.714;9.386;2022-10-16T02:05:24;15.50;88.10
44851;DHT22;30583;48.714;9.386;2022-10-16T02:07:51;15.60;87.70
44851;DHT22;30583;48.714;9.386;2022-10-16T02:10:17;15.60;87.70
44851;DHT22;30583;48.714;9.386;2022-10-16T02:12:56;15.70;87.40
44851;DHT22;30583;48.714;9.386;2022-10-16T02:15:22;15.70;87.40
44851;DHT22;30583;48.714;9.386;2022-10-16T02:17:48;15.70;87.10
44851;DHT22;30583;48.714;9.386;2022-10-16T02:20:14;15.70;87.30
44851;DHT22;30583;48.714;9.386;2022-10-16T02:22:44;15.60;87.50
44851;DHT22;30583;48.714;9.386;2022-10-16T02:25:24;15.70;87.70
44851;DHT22;30583;48.714;9.386;2022-10-16T02:28:08;15.60;87.70
44851;DHT22;30583;48.714;9.386;2022-10-16T02:30:45;15.60;87.90
44851;DHT22;30583;48.714;9.386;2022-10-16T02:33:14;15.60;87.80
44851;DHT22;30583;48.714;9.386;2022-10-16T02:35:41;15.70;87.50
44851;DHT22;30583;48.714;9.386;2022-10-16T02:38:09;15.60;87.70
44851;DHT22;30583;48.714;9.386;2022-10-16T02:40:35;15.60;87.80
44851;DHT22;30583;48.714;9.386;2022-10-16T02:43:04;15.60;87.80
44851;DHT22;30583;48.714;9.386;2022-10-16T02:45:30;15.60;87.70
44851;DHT22;30583;48.714;9.386;2022-10-16T02:47:55;15.70;87.60
44851;DHT22;30583;48.714;9.386;2022-10-16T02:50:21;15.60;87.90
44851;DHT22;30583;48.714;9.386;2022-10-16T02:52:47;15.70;87.70
44851;DHT22;30583;48.714;9.386;2022-10-16T02:55:13;15.70;87.60
44851;DHT22;30583;48.714;9.386;2022-10-16T02:57:39;15.70;87.80
44851;DHT22;30583;48.714;9.386;2022-10-16T03:00:06;15.70;87.50
44851;DHT22;30583;48.714;9.386;2022-10-16T03:02:33;15.60;87.80
44851;DHT22;30583;48.714;9.386;2022-10-16T03:04:59;15.60;87.70
44851;DHT22;30583;48.714;9.386;2022-10-16T03:07:24;15.70;87.80
44851;DHT22;30583;48.714;9.386;2022-10-16T03:09:50;15.60;87.70
44851;DHT22;30583;48.714;9.386;2022-10-16T03:12:15;15.60;87.70
44851;DHT22;30583;48.714;9.386;2022-10-16T03:14:41;15.70;87.70
44851;DHT22;30583;48.714;9.386;2022-10-16T03:17:06;15.60;87.80
44851;DHT22;30583;48.714;9.386;2022-10-16T03:19:32;15.60;87.80
44851;DHT22;30583;48.714;9.386;2022-10-16T03:21:58;15.70;87.50
44851;DHT22;30583;48.714;9.386;2022-10-16T03:24:23;15.70;87.50
44851;DHT22;30583;48.714;9.386;2022-10-16T03:26:49;15.60;87.60
44851;DHT22;30583;48.714;9.386;2022-10-16T03:29:14;15.60;87.60
44851;DHT22;30583;48.714;9.386;2022-10-16T03:31:40;15.60;87.60
44851;DHT22;30583;48.714;9.386;2022-10-16T03:34:06;15.60;87.50
44851;DHT22;30583;48.714;9.386;2022-10-16T03:36:31;15.60;87.70
44851;DHT22;30583;48.714;9.386;2022-10-16T03:38:57;15.60;87.70
44851;DHT22;30583;48.714;9.386;2022-10-16T03:41:22;15.50;87.80
44851;DHT22;30583;48.714;9.386;2022-10-16T03:43:48;15.50;87.80
44851;DHT22;30583;48.714;9.386;2022-10-16T03:46:14;15.50;87.80
44851;DHT22;30583;48.714;9.386;2022-10-16T03:48:39;15.60;87.60
44851;DHT22;30583;48.714;9.386;2022-10-16T03:51:05;15.70;87.20
44851;DHT22;30583;48.714;9.386;2022-10-16T03:53:31;15.60;87.30
44851;DHT22;30583;48.714;9.386;2022-10-16T03:55:56;15.50;87.50
44851;DHT22;30583;48.714;9.386;2022-10-16T03:58:22;15.60;87.60
44851;DHT22;30583;48.714;9.386;2022-10-16T04:00:48;15.60;87.50
44851;DHT22;30583;48.714;9.386;2022-10-16T04:03:14;15.70;87.10
44851;DHT22;30583;48.714;9.386;2022-10-16T04:05:40;15.50;87.40
44851;DHT22;30583;48.714;9.386;2022-10-16T04:08:05;15.40;87.60
44851;DHT22;30583;48.714;9.386;2022-10-16T04:10:31;15.40;87.70
44851;DHT22;30583;48.714;9.386;2022-10-16T04:12:57;15.30;87.80
44851;DHT22;30583;48.714;9.386;2022-10-16T04:15:23;15.40;88.00
44851;DHT22;30583;48.714;9.386;2022-10-16T04:17:49;15.40;87.80
44851;DHT22;30583;48.714;9.386;2022-10-16T04:20:15;15.50;87.70
44851;DHT22;30583;48.714;9.386;2022-10-16T04:22:40;15.40;87.60
44851;DHT22;30583;48.714;9.386;2022-10-16T04:25:06;15.50;87.50
44851;DHT22;30583;48.714;9.386;2022-10-16T04:27:32;15.50;87.40
44851;DHT22;30583;48.714;9.386;2022-10-16T04:29:59;15.50;87.70
44851;DHT22;30583;48.714;9.386;2022-10-16T04:32:25;15.70;87.60
44851;DHT22;30583;48.714;9.386;2022-10-16T04:34:50;15.70;87.10
44851;DHT22;30583;48.714;9.386;2022-10-16T04:37:16;15.70;87.00
44851;DHT22;30583;48.714;9.386;2022-10-16T04:39:41;15.70;86.90
44851;DHT22;30583;48.714;9.386;2022-10-16T04:42:07;15.70;87.00
44851;DHT22;30583;48.714;9.386;2022-10-16T04:44:33;15.70;86.80
44851;DHT22;30583;48.714;9.386;2022-10-16T04:46:58;15.80;86.50
44851;DHT22;30583;48.714;9.386;2022-10-16T04:49:24;15.80;86.30
44851;DHT22;30583;48.714;9.386;2022-10-16T04:51:49;15.80;86.30
44851;DHT22;30583;48.714;9.386;2022-10-16T04:54:15;15.80;86.20
44851;DHT22;30583;48.714;9.386;2022-10-16T04:56:40;15.70;86.20
44851;DHT22;30583;48.714;9.386;2022-10-16T04:59:13;15.70;86.40
44851;DHT22;30583;48.714;9.386;2022-10-16T05:01:38;15.70;86.30
44851;DHT22;30583;48.714;9.386;2022-10-16T05:04:04;15.70;86.20
44851;DHT22;30583;48.714;9.386;2022-10-16T05:06:29;15.70;86.20
44851;DHT22;30583;48.714;9.386;2022-10-16T05:08:55;15.70;86.20
44851;DHT22;30583;48.714;9.386;2022-10-16T05:11:21;15.70;86.20
44851;DHT22;30583;48.714;9.386;2022-10-16T05:13:46;15.70;86.40
44851;DHT22;30583;48.714;9.386;2022-10-16T05:16:12;15.70;86.50
44851;DHT22;30583;48.714;9.386;2022-10-16T05:18:37;15.70;86.30
44851;DHT22;30583;48.714;9.386;2022-10-16T05:21:03;15.60;86.40
44851;DHT22;30583;48.714;9.386;2022-10-16T05:23:29;15.60;86.50
44851;DHT22;30583;48.714;9.386;2022-10-16T05:25:58;15.50;86.70
44851;DHT22;30583;48.714;9.386;2022-10-16T05:28:28;15.40;87.00
44851;DHT22;30583;48.714;9.386;2022-10-16T05:30:55;15.30;87.30
44851;DHT22;30583;48.714;9.386;2022-10-16T05:33:21;15.30;87.50
44851;DHT22;30583;48.714;9.386;2022-10-16T05:35:47;15.30;87.60
44851;DHT22;30583;48.714;9.386;2022-10-16T05:38:13;15.40;87.20
44851;DHT22;30583;48.714;9.386;2022-10-16T05:40:39;15.40;87.10
44851;DHT22;30583;48.714;9.386;2022-10-16T05:43:04;15.40;87.10
44851;DHT22;30583;48.714;9.386;2022-10-16T05:45:30;15.30;87.30
44851;DHT22;30583;48.714;9.386;2022-10-16T05:47:56;15.30;87.10
44851;DHT22;30583;48.714;9.386;2022-10-16T05:50:21;15.20;87.30
44851;DHT22;30583;48.714;9.386;2022-10-16T05:52:47;15.30;87.00
44851;DHT22;30583;48.714;9.386;2022-10-16T05:55:12;15.30;87.10
44851;DHT22;30583;48.714;9.386;2022-10-16T05:57:38;15.20;87.00
44851;DHT22;30583;48.714;9.386;2022-10-16T06:00:04;15.30;87.10
44851;DHT22;30583;48.714;9.386;2022-10-16T06:02:30;15.30;87.00
44851;DHT22;30583;48.714;9.386;2022-10-16T06:04:55;15.40;86.60
44851;DHT22;30583;48.714;9.386;2022-10-16T06:07:22;15.30;86.50
44851;DHT22;30583;48.714;9.386;2022-10-16T06:09:49;15.20;86.90
44851;DHT22;30583;48.714;9.386;2022-10-16T06:12:15;15.20;87.50
44851;DHT22;30583;48.714;9.386;2022-10-16T06:14:41;15.30;86.80
44851;DHT22;30583;48.714;9.386;2022-10-16T06:17:07;15.40;86.70
44851;DHT22;30583;48.714;9.386;2022-10-16T06:19:32;15.30;86.50
44851;DHT22;30583;48.714;9.386;2022-10-16T06:21:58;15.40;86.60
44851;DHT22;30583;48.714;9.386;2022-10-16T06:24:24;15.30;86.80
44851;DHT22;30583;48.714;9.386;2022-10-16T06:26:50;15.30;87.00
44851;DHT22;30583;48.714;9.386;2022-10-16T06:29:16;15.30;87.10
44851;DHT22;30583;48.714;9.386;2022-10-16T06:31:41;15.40;86.90
44851;DHT22;30583;48.714;9.386;2022-10-16T06:34:09;15.40;87.00
44851;DHT22;30583;48.714;9.386;2022-10-16T06:36:37;15.50;86.70
44851;DHT22;30583;48.714;9.386;2022-10-16T06:39:03;15.70;86.40
44851;DHT22;30583;48.714;9.386;2022-10-16T06:41:30;15.50;86.60
44851;DHT22;30583;48.714;9.386;2022-10-16T06:43:55;15.50;86.80
44851;DHT22;30583;48.714;9.386;2022-10-16T06:46:23;15.50;86.80
44851;DHT22;30583;48.714;9.386;2022-10-16T06:48:49;15.50;87.00
44851;DHT22;30583;48.714;9.386;2022-10-16T06:51:19;15.50;87.00
44851;DHT22;30583;48.714;9.386;2022-10-16T06:53:48;15.60;87.00
44851;DHT22;30583;48.714;9.386;2022-10-16T06:56:19;15.60;87.00
44851;DHT22;30583;48.714;9.386;2022-10-16T06:58:46;15.70;86.60
44851;DHT22;30583;48.714;9.386;2022-10-16T07:01:12;15.70;86.40
44851;DHT22;30583;48.714;9.386;2022-10-16T07:03:39;15.70;86.80
44851;DHT22;30583;48.714;9.386;2022-10-16T07:06:06;15.80;86.60
44851;DHT22;30583;48.714;9.386;2022-10-16T07:08:37;15.70;86.90
44851;DHT22;30583;48.714;9.386;2022-10-16T07:11:06;15.70;87.10
44851;DHT22;30583;48.714;9.386;2022-10-16T07:13:36;15.80;87.00
44851;DHT22;30583;48.714;9.386;2022-10-16T07:16:13;15.90;86.80
44851;DHT22;30583;48.714;9.386;2022-10-16T07:18:40;15.90;86.90
44851;DHT22;30583;48.714;9.386;2022-10-16T07:21:06;15.90;86.90
44851;DHT22;30583;48.714;9.386;2022-10-16T07:23:32;15.90;87.00
44851;DHT22;30583;48.714;9.386;2022-10-16T07:25:58;15.80;87.10
44851;DHT22;30583;48.714;9.386;2022-10-16T07:28:24;15.80;87.20
44851;DHT22;30583;48.714;9.386;2022-10-16T07:30:50;15.90;87.40
44851;DHT22;30583;48.714;9.386;2022-10-16T07:33:16;16.10;87.10
44851;DHT22;30583;48.714;9.386;2022-10-16T07:35:52;16.30;86.00
44851;DHT22;30583;48.714;9.386;2022-10-16T07:38:18;16.40;85.60
44851;DHT22;30583;48.714;9.386;2022-10-16T07:40:44;16.40;85.50
44851;DHT22;30583;48.714;9.386;2022-10-16T07:43:09;16.50;85.20
44851;DHT22;30583;48.714;9.386;2022-10-16T07:45:35;16.60;85.00
44851;DHT22;30583;48.714;9.386;2022-10-16T07:48:00;16.60;84.90
44851;DHT22;30583;48.714;9.386;2022-10-16T07:50:26;16.70;84.80
44851;DHT22;30583;48.714;9.386;2022-10-16T07:52:52;16.70;84.70
44851;DHT22;30583;48.714;9.386;2022-10-16T07:55:17;16.70;84.60
44851;DHT22;30583;48.714;9.386;2022-10-16T07:57:43;16.40;85.40
44851;DHT22;30583;48.714;9.386;2022-10-16T08:00:09;16.60;85.30
44851;DHT22;30583;48.714;9.386;2022-10-16T08:02:39;16.70;84.60
44851;DHT22;30583;48.714;9.386;2022-10-16T08:05:06;16.60;85.00
44851;DHT22;30583;48.714;9.386;2022-10-16T08:07:32;16.50;85.20
44851;DHT22;30583;48.714;9.386;2022-10-16T08:09:57;16.70;85.00
44851;DHT22;30583;48.714;9.386;2022-10-16T08:12:24;16.70;84.80
44851;DHT22;30583;48.714;9.386;2022-10-16T08:14:50;16.80;84.50
44851;DHT22;30583;48.714;9.386;2022-10-16T08:17:15;16.70;84.90
44851;DHT22;30583;48.714;9.386;2022-10-16T08:19:47;16.80;84.50
44851;DHT22;30583;48.714;9.386;2022-10-16T08:22:13;16.90;84.60
44851;DHT22;30583;48.714;9.386;2022-10-16T08:24:39;16.90;84.80
44851;DHT22;30583;48.714;9.386;2022-10-16T08:27:05;16.80;84.90
44851;DHT22;30583;48.714;9.386;2022-10-16T08:29:34;16.80;84.70
44851;DHT22;30583;48.714;9.386;2022-10-16T08:31:59;16.70;85.50
44851;DHT22;30583;48.714;9.386;2022-10-16T08:34:25;17.00;84.70
44851;DHT22;30583;48.714;9.386;2022-10-16T08:36:53;17.20;84.40
44851;DHT22;30583;48.714;9.386;2022-10-16T08:39:19;17.30;83.90
44851;DHT22;30583;48.714;9.386;2022-10-16T08:42:19;17.30;83.70
44851;DHT22;30583;48.714;9.386;2022-10-16T08:45:08;17.30;84.10
44851;DHT22;30583;48.714;9.386;2022-10-16T08:50:33;16.90;86.30
44851;DHT22;30583;48.714;9.386;2022-10-16T08:53:03;17.00;86.30
44851;DHT22;30583;48.714;9.386;2022-10-16T08:55:42;17.10;85.90
44851;DHT22;30583;48.714;9.386;2022-10-16T08:58:17;17.20;85.50
44851;DHT22;30583;48.714;9.386;2022-10-16T09:00:48;17.20;85.30
44851;DHT22;30583;48.714;9.386;2022-10-16T09:10:17;17.60;83.20
44851;DHT22;30583;48.714;9.386;2022-10-16T09:13:02;19.00;78.00
44851;DHT22;30583;48.714;9.386;2022-10-16T09:15:35;19.60;76.40
44851;DHT22;30583;48.714;9.386;2022-10-16T09:18:33;19.80;75.40
44851;DHT22;30583;48.714;9.386;2022-10-16T09:23:35;19.00;78.50
44851;DHT22;30583;48.714;9.386;2022-10-16T09:26:01;18.30;81.70
44851;DHT22;30583;48.714;9.386;2022-10-16T09:28:28;17.90;82.50
44851;DHT22;30583;48.714;9.386;2022-10-16T09:30:53;17.70;83.20
44851;DHT22;30583;48.714;9.386;2022-10-16T09:33:23;17.80;83.60
44851;DHT22;30583;48.714;9.386;2022-10-16T09:35:54;17.70;83.00
44851;DHT22;30583;48.714;9.386;2022-10-16T09:38:32;17.80;83.60
44851;DHT22;30583;48.714;9.386;2022-10-16T09:41:22;17.90;82.60
44851;DHT22;30583;48.714;9.386;2022-10-16T09:44:00;17.90;81.70
44851;DHT22;30583;48.714;9.386;2022-10-16T09:46:32;18.00;80.70
44851;DHT22;30583;48.714;9.386;2022-10-16T09:49:00;18.20;81.30
44851;DHT22;30583;48.714;9.386;2022-10-16T09:51:35;18.20;80.90
44851;DHT22;30583;48.714;9.386;2022-10-16T09:54:14;18.20;80.00
44851;DHT22;30583;48.714;9.386;2022-10-16T09:56:40;18.30;80.40
44851;DHT22;30583;48.714;9.386;2022-10-16T09:59:12;18.30;80.10
44851;DHT22;30583;48.714;9.386;2022-10-16T10:01:53;18.50;80.20
44851;DHT22;30583;48.714;9.386;2022-10-16T10:04:24;18.70;79.30
44851;DHT22;30583;48.714;9.386;2022-10-16T10:06:53;18.70;80.20
44851;DHT22;30583;48.714;9.386;2022-10-16T10:09:26;18.50;79.60
44851;DHT22;30583;48.714;9.386;2022-10-16T10:12:00;18.30;80.00
44851;DHT22;30583;48.714;9.386;2022-10-16T10:14:38;18.30;80.70
44851;DHT22;30583;48.714;9.386;2022-10-16T10:19:47;19.60;81.30
44851;DHT22;30583;48.714;9.386;2022-10-16T10:25:44;20.00;78.50
44851;DHT22;30583;48.714;9.386;2022-10-16T10:31:01;20.20;77.10
44851;DHT22;30583;48.714;9.386;2022-10-16T10:33:42;20.10;77.10
44851;DHT22;30583;48.714;9.386;2022-10-16T10:36:25;19.70;77.10
44851;DHT22;30583;48.714;9.386;2022-10-16T10:44:21;21.20;75.90
44851;DHT22;30583;48.714;9.386;2022-10-16T10:49:56;21.30;74.60
44851;DHT22;30583;48.714;9.386;2022-10-16T10:58:29;22.10;72.60
44851;DHT22;30583;48.714;9.386;2022-10-16T11:01:10;21.90;69.50
44851;DHT22;30583;48.714;9.386;2022-10-16T11:06:36;22.30;71.60
44851;DHT22;30583;48.714;9.386;2022-10-16T11:09:30;22.20;69.70
44851;DHT22;30583;48.714;9.386;2022-10-16T11:12:20;22.40;68.30
44851;DHT22;30583;48.714;9.386;2022-10-16T11:15:15;23.10;68.40
44851;DHT22;30583;48.714;9.386;2022-10-16T11:17:53;22.70;67.40
44851;DHT22;30583;48.714;9.386;2022-10-16T11:20:26;22.90;68.10
44851;DHT22;30583;48.714;9.386;2022-10-16T11:22:58;22.90;66.70
44851;DHT22;30583;48.714;9.386;2022-10-16T11:25:31;23.70;67.50
44851;DHT22;30583;48.714;9.386;2022-10-16T11:27:58;23.40;64.70
44851;DHT22;30583;48.714;9.386;2022-10-16T11:30:28;23.70;63.40
44851;DHT22;30583;48.714;9.386;2022-10-16T11:35:57;24.20;64.00
44851;DHT22;30583;48.714;9.386;2022-10-16T11:41:33;24.80;58.40
44851;DHT22;30583;48.714;9.386;2022-10-16T11:46:58;24.60;57.10
44851;DHT22;30583;48.714;9.386;2022-10-16T11:49:28;24.70;58.50
44851;DHT22;30583;48.714;9.386;2022-10-16T11:54:59;24.80;55.50
44851;DHT22;30583;48.714;9.386;2022-10-16T11:57:40;24.80;54.30
44851;DHT22;30583;48.714;9.386;2022-10-16T12:00:23;25.20;53.30
44851;DHT22;30583;48.714;9.386;2022-10-16T12:03:01;25.40;53.10
44851;DHT22;30583;48.714;9.386;2022-10-16T12:08:14;25.10;54.10
44851;DHT22;30583;48.714;9.386;2022-10-16T12:10:43;25.20;54.50
44851;DHT22;30583;48.714;9.386;2022-10-16T12:13:32;25.20;53.30
44851;DHT22;30583;48.714;9.386;2022-10-16T12:16:24;25.20;53.20
44851;DHT22;30583;48.714;9.386;2022-10-16T12:19:13;25.30;53.70
44851;DHT22;30583;48.714;9.386;2022-10-16T12:21:39;25.70;53.10
44851;DHT22;30583;48.714;9.386;2022-10-16T12:24:06;25.60;51.80
44851;DHT22;30583;48.714;9.386;2022-10-16T12:26:38;25.70;52.80
44851;DHT22;30583;48.714;9.386;2022-10-16T12:29:35;26.00;50.70
44851;DHT22;30583;48.714;9.386;2022-10-16T12:32:00;25.30;51.30
44851;DHT22;30583;48.714;9.386;2022-10-16T12:34:42;25.30;52.50
44851;DHT22;30583;48.714;9.386;2022-10-16T12:37:32;25.60;51.80
44851;DHT22;30583;48.714;9.386;2022-10-16T12:39:59;25.60;52.10
44851;DHT22;30583;48.714;9.386;2022-10-16T12:44:54;26.30;50.30
44851;DHT22;30583;48.714;9.386;2022-10-16T12:49:59;26.50;49.70
44851;DHT22;30583;48.714;9.386;2022-10-16T12:52:35;26.50;51.10
44851;DHT22;30583;48.714;9.386;2022-10-16T12:55:04;26.60;50.10
44851;DHT22;30583;48.714;9.386;2022-10-16T13:03:35;26.80;50.70
44851;DHT22;30583;48.714;9.386;2022-10-16T13:06:20;26.10;50.90
44851;DHT22;30583;48.714;9.386;2022-10-16T13:09:27;25.40;51.40
44851;DHT22;30583;48.714;9.386;2022-10-16T13:15:03;24.40;53.60
44851;DHT22;30583;48.714;9.386;2022-10-16T13:18:22;24.30;54.20
44851;DHT22;30583;48.714;9.386;2022-10-16T13:23:16;25.50;52.70
44851;DHT22;30583;48.714;9.386;2022-10-16T13:28:11;26.20;49.60
44851;DHT22;30583;48.714;9.386;2022-10-16T13:30:51;26.50;48.70
44851;DHT22;30583;48.714;9.386;2022-10-16T13:33:21;26.30;48.40
44851;DHT22;30583;48.714;9.386;2022-10-16T13:35:50;26.60;49.00
44851;DHT22;30583;48.714;9.386;2022-10-16T13:38:18;26.50;48.90
44851;DHT22;30583;48.714;9.386;2022-10-16T13:41:05;26.60;49.30
44851;DHT22;30583;48.714;9.386;2022-10-16T13:43:42;27.00;49.60
44851;DHT22;30583;48.714;9.386;2022-10-16T13:46:17;27.20;47.90
44851;DHT22;30583;48.714;9.386;2022-10-16T13:48:43;26.70;45.60
44851;DHT22;30583;48.714;9.386;2022-10-16T13:51:18;25.60;47.70
44851;DHT22;30583;48.714;9.386;2022-10-16T13:53:45;25.60;49.20
44851;DHT22;30583;48.714;9.386;2022-10-16T13:56:13;26.00;49.90
44851;DHT22;30583;48.714;9.386;2022-10-16T13:58:40;26.10;50.30
44851;DHT22;30583;48.714;9.386;2022-10-16T14:01:27;26.00;50.00
44851;DHT22;30583;48.714;9.386;2022-10-16T14:04:07;25.70;50.20
44851;DHT22;30583;48.714;9.386;2022-10-16T14:06:33;25.50;50.90
44851;DHT22;30583;48.714;9.386;2022-10-16T14:09:05;25.40;49.50
44851;DHT22;30583;48.714;9.386;2022-10-16T14:11:33;25.40;49.30
44851;DHT22;30583;48.714;9.386;2022-10-16T14:14:00;25.40;50.20
44851;DHT22;30583;48.714;9.386;2022-10-16T14:16:28;25.30;51.20
44851;DHT22;30583;48.714;9.386;2022-10-16T14:19:04;25.20;52.90
44851;DHT22;30583;48.714;9.386;2022-10-16T14:21:33;24.90;52.20
44851;DHT22;30583;48.714;9.386;2022-10-16T14:23:59;24.70;52.80
44851;DHT22;30583;48.714;9.386;2022-10-16T14:26:27;24.50;53.30
44851;DHT22;30583;48.714;9.386;2022-10-16T14:29:23;24.60;54.10
44851;DHT22;30583;48.714;9.386;2022-10-16T14:32:00;24.20;53.00
44851;DHT22;30583;48.714;9.386;2022-10-16T14:34:36;24.40;54.90
44851;DHT22;30583;48.714;9.386;2022-10-16T14:37:28;24.70;54.50
44851;DHT22;30583;48.714;9.386;2022-10-16T14:39:55;24.30;55.00
44851;DHT22;30583;48.714;9.386;2022-10-16T14:42:22;24.20;55.00
44851;DHT22;30583;48.714;9.386;2022-10-16T14:44:50;24.00;55.40
44851;DHT22;30583;48.714;9.386;2022-10-16T14:47:20;24.00;55.80
44851;DHT22;30583;48.714;9.386;2022-10-16T14:49:50;23.80;55.50
44851;DHT22;30583;48.714;9.386;2022-10-16T14:52:16;23.70;56.20
44851;DHT22;30583;48.714;9.386;2022-10-16T14:54:41;23.60;56.60
44851;DHT22;30583;48.714;9.386;2022-10-16T14:57:17;23.70;57.20
44851;DHT22;30583;48.714;9.386;2022-10-16T14:59:43;23.90;56.90
44851;DHT22;30583;48.714;9.386;2022-10-16T15:04:46;23.70;56.70
44851;DHT22;30583;48.714;9.386;2022-10-16T15:07:12;23.90;57.20
44851;DHT22;30583;48.714;9.386;2022-10-16T15:09:38;23.80;57.20
44851;DHT22;30583;48.714;9.386;2022-10-16T15:12:03;24.00;57.80
44851;DHT22;30583;48.714;9.386;2022-10-16T15:14:29;23.90;56.90
44851;DHT22;30583;48.714;9.386;2022-10-16T15:16:54;23.90;57.30
44851;DHT22;30583;48.714;9.386;2022-10-16T15:19:20;23.90;57.70
44851;DHT22;30583;48.714;9.386;2022-10-16T15:21:46;24.00;58.00
44851;DHT22;30583;48.714;9.386;2022-10-16T15:24:13;23.70;58.30
44851;DHT22;30583;48.714;9.386;2022-10-16T15:26:39;23.70;58.70
44851;DHT22;30583;48.714;9.386;2022-10-16T15:29:05;23.60;59.10
44851;DHT22;30583;48.714;9.386;2022-10-16T15:31:31;23.80;58.80
44851;DHT22;30583;48.714;9.386;2022-10-16T15:33:57;24.00;59.10
44851;DHT22;30583;48.714;9.386;2022-10-16T15:36:33;24.10;58.70
44851;DHT22;30583;48.714;9.386;2022-10-16T15:38:59;24.10;58.70
44851;DHT22;30583;48.714;9.386;2022-10-16T15:41:26;24.00;58.60
44851;DHT22;30583;48.714;9.386;2022-10-16T15:43:52;23.70;59.60
44851;DHT22;30583;48.714;9.386;2022-10-16T15:46:19;23.20;61.10
44851;DHT22;30583;48.714;9.386;2022-10-16T15:48:46;23.20;61.40
44851;DHT22;30583;48.714;9.386;2022-10-16T15:51:11;23.10;61.40
44851;DHT22;30583;48.714;9.386;2022-10-16T15:53:37;22.90;62.00
44851;DHT22;30583;48.714;9.386;2022-10-16T15:56:04;22.80;61.90
44851;DHT22;30583;48.714;9.386;2022-10-16T15:58:29;22.90;62.00
44851;DHT22;30583;48.714;9.386;2022-10-16T16:00:56;22.80;62.20
44851;DHT22;30583;48.714;9.386;2022-10-16T16:03:22;22.80;61.70
44851;DHT22;30583;48.714;9.386;2022-10-16T16:05:48;22.70;61.90
44851;DHT22;30583;48.714;9.386;2022-10-16T16:08:13;22.70;62.20
44851;DHT22;30583;48.714;9.386;2022-10-16T16:10:39;22.70;63.00
44851;DHT22;30583;48.714;9.386;2022-10-16T16:13:04;22.60;64.20
44851;DHT22;30583;48.714;9.386;2022-10-16T16:15:30;22.50;66.60
44851;DHT22;30583;48.714;9.386;2022-10-16T16:17:55;22.50;65.50
44851;DHT22;30583;48.714;9.386;2022-10-16T16:20:21;22.20;69.10
44851;DHT22;30583;48.714;9.386;2022-10-16T16:22:47;22.00;69.90
44851;DHT22;30583;48.714;9.386;2022-10-16T16:25:12;22.10;70.00
44851;DHT22;30583;48.714;9.386;2022-10-16T16:27:38;22.10;69.70
44851;DHT22;30583;48.714;9.386;2022-10-16T16:30:09;22.00;69.10
44851;DHT22;30583;48.714;9.386;2022-10-16T16:32:35;21.90;69.00
44851;DHT22;30583;48.714;9.386;2022-10-16T16:35:01;21.90;69.60
44851;DHT22;30583;48.714;9.386;2022-10-16T16:37:27;21.90;70.00
44851;DHT22;30583;48.714;9.386;2022-10-16T16:39:53;21.50;73.80
44851;DHT22;30583;48.714;9.386;2022-10-16T16:42:20;21.50;74.60
44851;DHT22;30583;48.714;9.386;2022-10-16T16:44:47;21.50;74.00
44851;DHT22;30583;48.714;9.386;2022-10-16T16:47:13;21.50;73.50
44851;DHT22;30583;48.714;9.386;2022-10-16T16:49:38;21.60;73.50
44851;DHT22;30583;48.714;9.386;2022-10-16T16:52:05;21.50;73.80
44851;DHT22;30583;48.714;9.386;2022-10-16T16:54:31;21.40;73.70
44851;DHT22;30583;48.714;9.386;2022-10-16T16:56:57;21.30;73.60
44851;DHT22;30583;48.714;9.386;2022-10-16T16:59:22;21.20;73.10
44851;DHT22;30583;48.714;9.386;2022-10-16T17:01:49;21.00;73.40
44851;DHT22;30583;48.714;9.386;2022-10-16T17:04:15;20.90;73.80